createdAt,value
2022-09-15T00:03:15.856Z,957.9
2022-09-15T00:07:58.063Z,957.9
2022-09-15T00:12:39.409Z,957.9
2022-09-15T00:17:21.693Z,957.8
2022-09-15T00:22:03.997Z,957.8
2022-09-15T00:26:46.310Z,957.8
2022-09-15T00:31:28.534Z,957.7
2022-09-15T00:36:10.836Z,957.7
2022-09-15T00:40:53.142Z,957.8
2022-09-15T00:45:35.353Z,957.7
2022-09-15T00:50:17.668Z,957.7
2022-09-15T00:54:59.976Z,957.6
2022-09-15T00:59:42.190Z,957.7
2022-09-15T01:04:24.505Z,957.6
2022-09-15T01:09:06.821Z,957.6
2022-09-15T01:13:48.120Z,957.6
2022-09-15T01:18:30.373Z,957.6
2022-09-15T01:23:12.646Z,957.5
2022-09-15T01:27:54.959Z,957.5
2022-09-15T01:32:37.181Z,957.5
2022-09-15T01:37:19.482Z,957.4
2022-09-15T01:42:01.793Z,957.3
2022-09-15T01:46:44.003Z,957.3
2022-09-15T01:51:26.310Z,957.3
2022-09-15T01:56:08.625Z,957.2
2022-09-15T02:00:50.867Z,957.3
2022-09-15T02:05:33.150Z,957.5
2022-09-15T02:10:15.489Z,957.3
2022-09-15T02:14:56.769Z,957.3
2022-09-15T02:19:38.983Z,957.2
2022-09-15T02:24:21.290Z,957.1
2022-09-15T02:29:03.605Z,957.1
2022-09-15T02:33:45.816Z,957
2022-09-15T02:38:28.127Z,957.1
2022-09-15T02:43:10.436Z,957.2
2022-09-15T02:52:34.943Z,957
2022-09-15T02:57:17.250Z,957
2022-09-15T03:01:59.561Z,957
2022-09-15T03:06:41.811Z,957
2022-09-15T03:11:24.092Z,957
2022-09-15T03:16:05.392Z,957
2022-09-15T03:20:47.606Z,957
2022-09-15T03:25:29.925Z,957
2022-09-15T03:30:12.233Z,957.1
2022-09-15T03:34:54.440Z,957.1
2022-09-15T03:39:36.750Z,957
2022-09-15T03:44:19.068Z,956.9
2022-09-15T03:49:01.289Z,957
2022-09-15T03:53:43.611Z,957
2022-09-15T03:58:25.902Z,956.9
2022-09-15T04:03:08.113Z,956.9
2022-09-15T04:07:50.424Z,956.8
2022-09-15T04:12:32.744Z,956.8
2022-09-15T04:17:14.048Z,956.8
2022-09-15T04:21:56.266Z,956.7
2022-09-15T04:26:38.579Z,956.7
2022-09-15T04:31:20.889Z,956.7
2022-09-15T04:36:03.093Z,956.6
2022-09-15T04:40:45.407Z,956.6
2022-09-15T04:45:27.622Z,956.6
2022-09-15T04:50:09.950Z,956.5
2022-09-15T04:54:52.243Z,956.6
2022-09-15T04:59:34.457Z,956.7
2022-09-15T05:04:16.773Z,956.7
2022-09-15T05:08:59.078Z,956.6
2022-09-15T05:13:41.290Z,956.6
2022-09-15T05:18:22.600Z,956.6
2022-09-15T05:23:04.912Z,956.6
2022-09-15T05:27:47.239Z,956.6
2022-09-15T05:32:29.465Z,956.6
2022-09-15T05:37:11.884Z,956.6
2022-09-15T05:41:54.099Z,956.6
2022-09-15T05:46:36.280Z,956.7
2022-09-15T05:51:18.585Z,956.7
2022-09-15T06:00:43.122Z,956.7
2022-09-15T06:05:25.429Z,956.7
2022-09-15T06:10:07.734Z,956.6
2022-09-15T06:14:49.949Z,956.6
2022-09-15T06:19:31.256Z,956.6
2022-09-15T06:24:13.566Z,956.6
2022-09-15T06:28:55.787Z,956.7
2022-09-15T06:33:38.132Z,956.8
2022-09-15T06:38:20.402Z,956.7
2022-09-15T06:43:02.613Z,956.9
2022-09-15T06:47:44.925Z,956.8
2022-09-15T06:52:27.253Z,956.8
2022-09-15T06:57:09.506Z,956.8
2022-09-15T07:01:51.754Z,956.8
2022-09-15T07:06:34.112Z,956.8
2022-09-15T07:11:16.331Z,956.9
2022-09-15T07:15:58.594Z,956.9
2022-09-15T07:20:39.917Z,956.9
2022-09-15T07:25:22.226Z,957
2022-09-15T07:30:04.423Z,957
2022-09-15T07:34:46.740Z,957.1
2022-09-15T07:39:29.070Z,957.1
2022-09-15T07:44:11.269Z,957.1
2022-09-15T07:48:53.575Z,957.2
2022-09-15T07:53:35.888Z,957.3
2022-09-15T07:58:18.101Z,957.3
2022-09-15T08:03:00.462Z,957.4
2022-09-15T08:07:42.727Z,957.5
2022-09-15T08:12:24.948Z,957.5
2022-09-15T08:17:07.251Z,957.5
2022-09-15T08:21:48.612Z,957.7
2022-09-15T08:26:30.772Z,957.8
2022-09-15T08:31:13.150Z,957.9
2022-09-15T08:35:55.398Z,958
2022-09-15T08:40:37.616Z,958.2
2022-09-15T08:45:19.926Z,958.2
2022-09-15T08:50:02.230Z,958.3
2022-09-15T08:54:44.490Z,958.4
2022-09-15T08:59:26.779Z,958.5
2022-09-15T09:04:09.100Z,958.3
2022-09-15T09:08:51.277Z,958.3
2022-09-15T09:13:33.655Z,958.3
2022-09-15T09:18:15.900Z,958.3
2022-09-15T09:22:57.212Z,958.3
2022-09-15T09:27:39.508Z,958.3
2022-09-15T09:32:21.740Z,958.2
2022-09-15T09:37:04.045Z,958.3
2022-09-15T09:41:46.262Z,958.3
2022-09-15T09:46:28.570Z,958.4
2022-09-15T09:51:11.003Z,958.4
2022-09-15T09:55:53.143Z,958.5
2022-09-15T10:00:35.517Z,958.5
2022-09-15T10:05:17.744Z,958.5
2022-09-15T10:09:59.985Z,958.5
2022-09-15T10:14:42.272Z,958.5
2022-09-15T10:19:24.557Z,958.4
2022-09-15T10:24:05.770Z,958.4
2022-09-15T10:28:48.136Z,958.5
2022-09-15T10:33:30.450Z,958.4
2022-09-15T10:38:12.602Z,958.4
2022-09-15T10:42:54.946Z,958.3
2022-09-15T10:47:37.239Z,958.4
2022-09-15T10:52:19.493Z,958.4
2022-09-15T10:57:01.823Z,958.3
2022-09-15T11:01:44.078Z,958.2
2022-09-15T11:06:26.277Z,958.2
2022-09-15T11:11:08.609Z,958.1
2022-09-15T11:15:50.989Z,958
2022-09-15T11:20:33.106Z,958.1
2022-09-15T11:25:14.478Z,958
2022-09-15T11:29:56.821Z,958.2
2022-09-15T11:34:39.048Z,958.1
2022-09-15T11:39:21.288Z,958.2
2022-09-15T11:44:03.625Z,958.2
2022-09-15T11:48:45.880Z,958.3
2022-09-15T11:53:28.088Z,958.3
2022-09-15T11:58:10.398Z,958.4
2022-09-15T12:02:52.733Z,958.4
2022-09-15T12:07:35.023Z,958.4
2022-09-15T12:12:17.395Z,958.3
2022-09-15T12:16:59.632Z,958.4
2022-09-15T12:21:41.781Z,958.4
2022-09-15T12:26:23.096Z,958.5
2022-09-15T12:31:05.427Z,958.6
2022-09-15T12:35:47.597Z,958.7
2022-09-15T12:40:30.003Z,958.6
2022-09-15T12:45:12.221Z,958.6
2022-09-15T12:49:54.443Z,958.8
2022-09-15T12:54:36.768Z,958.8
2022-09-15T12:59:19.154Z,958.9
2022-09-15T13:04:01.270Z,958.9
2022-09-15T13:08:43.592Z,958.9
2022-09-15T13:13:25.982Z,958.9
2022-09-15T13:18:08.167Z,959
2022-09-15T13:22:50.543Z,959.1
2022-09-15T13:27:31.726Z,959.1
2022-09-15T13:32:14.081Z,959.2
2022-09-15T13:36:56.249Z,959.1
2022-09-15T13:41:38.637Z,959.1
2022-09-15T13:46:20.877Z,959
2022-09-15T13:51:03.141Z,959
2022-09-15T13:55:45.451Z,958.9
2022-09-15T14:00:27.754Z,958.9
2022-09-15T14:05:09.997Z,958.8
2022-09-15T14:09:52.248Z,958.9
2022-09-15T14:14:34.622Z,958.8
2022-09-15T14:19:16.761Z,958.9
2022-09-15T14:23:59.095Z,959
2022-09-15T14:28:40.494Z,959
2022-09-15T14:33:22.690Z,959
2022-09-15T14:38:04.904Z,959.1
2022-09-15T14:42:47.336Z,959.1
2022-09-15T14:47:29.628Z,959.1
2022-09-15T14:52:11.865Z,959.1
2022-09-15T14:56:54.077Z,959.3
2022-09-15T15:01:36.516Z,959.4
2022-09-15T15:06:18.628Z,959.4
2022-09-15T15:11:01.004Z,959.4
2022-09-15T15:15:43.308Z,959.4
2022-09-15T15:20:25.577Z,959.5
2022-09-15T15:25:07.829Z,959.6
2022-09-15T15:29:49.116Z,959.6
2022-09-15T15:34:31.245Z,959.7
2022-09-15T15:39:13.566Z,959.7
2022-09-15T15:43:56.018Z,959.6
2022-09-15T15:48:38.196Z,959.7
2022-09-15T15:53:20.526Z,959.7
2022-09-15T15:58:01.714Z,959.7
2022-09-15T16:02:44.038Z,959.7
2022-09-15T16:07:26.237Z,959.7
2022-09-15T16:12:08.534Z,959.7
2022-09-15T16:16:50.881Z,959.7
2022-09-15T16:21:33.063Z,959.7
2022-09-15T16:26:15.382Z,959.7
2022-09-15T16:30:57.685Z,959.8
2022-09-15T16:35:39.901Z,959.8
2022-09-15T16:40:22.206Z,959.8
2022-09-15T16:45:04.524Z,959.9
2022-09-15T16:49:46.730Z,960
2022-09-15T16:54:29.046Z,960
2022-09-15T16:59:10.351Z,960.1
2022-09-15T17:03:52.686Z,960.1
2022-09-15T17:08:34.879Z,960.2
2022-09-15T17:13:17.197Z,960.3
2022-09-15T17:17:59.499Z,960.3
2022-09-15T17:22:41.729Z,960.3
2022-09-15T17:27:24.022Z,960.4
2022-09-15T17:32:06.423Z,960.5
2022-09-15T17:36:48.549Z,960.5
2022-09-15T17:41:30.872Z,960.6
2022-09-15T17:46:13.171Z,960.7
2022-09-15T17:50:55.389Z,960.8
2022-09-15T17:55:37.696Z,960.8
2022-09-15T18:00:19.010Z,960.9
2022-09-15T18:05:01.214Z,961
2022-09-15T18:09:43.531Z,961
2022-09-15T18:14:25.840Z,961.1
2022-09-15T18:19:08.052Z,961.2
2022-09-15T18:23:50.364Z,961.3
2022-09-15T18:33:14.886Z,961.2
2022-09-15T18:37:57.200Z,961.3
2022-09-15T18:42:39.510Z,961.4
2022-09-15T18:47:21.819Z,961.4
2022-09-15T18:52:04.037Z,961.4
2022-09-15T18:56:46.354Z,961.5
2022-09-15T19:01:27.667Z,961.6
2022-09-15T19:06:09.867Z,961.7
2022-09-15T19:10:52.181Z,961.7
2022-09-15T19:15:34.493Z,961.7
2022-09-15T19:20:16.748Z,961.7
2022-09-15T19:24:59.036Z,961.7
2022-09-15T19:29:41.323Z,961.8
2022-09-15T19:34:23.537Z,961.9
2022-09-15T19:39:05.848Z,962
2022-09-15T19:43:48.266Z,962
2022-09-15T19:48:30.491Z,962
2022-09-15T19:53:12.809Z,962.1
2022-09-15T19:57:55.131Z,962
2022-09-15T20:02:36.348Z,962.1
2022-09-15T20:07:18.640Z,962.1
2022-09-15T20:12:00.829Z,962.1
2022-09-15T20:16:43.142Z,962.1
2022-09-15T20:21:25.352Z,962.2
2022-09-15T20:26:07.664Z,962.2
2022-09-15T20:30:50.012Z,962.2
2022-09-15T20:35:32.186Z,962.1
2022-09-15T20:40:14.498Z,962
2022-09-15T20:44:55.808Z,961.9
2022-09-15T20:49:37.138Z,962.1
2022-09-15T20:54:19.429Z,962.2
2022-09-15T20:59:01.643Z,962.2
2022-09-15T21:03:43.951Z,962.2
2022-09-15T21:08:26.263Z,962.2
2022-09-15T21:13:08.482Z,962.3
2022-09-15T21:17:50.813Z,962.4
2022-09-15T21:22:33.100Z,962.3
2022-09-15T21:27:15.312Z,962.4
2022-09-15T21:31:57.627Z,962.4
2022-09-15T21:36:39.941Z,962.4
2022-09-15T21:41:22.144Z,962.3
2022-09-15T21:46:04.473Z,962.3
2022-09-15T21:50:45.769Z,962.3
2022-09-15T21:55:28.083Z,962.3
2022-09-15T22:00:10.299Z,962.4
2022-09-15T22:04:52.606Z,962.4
2022-09-15T22:09:34.914Z,962.5
2022-09-15T22:14:17.134Z,962.5
2022-09-15T22:18:59.457Z,962.5
2022-09-15T22:23:40.747Z,962.5
2022-09-15T22:28:22.056Z,962.5
2022-09-15T22:33:04.378Z,962.4
2022-09-15T22:37:46.581Z,962.4
2022-09-15T22:42:28.894Z,962.4
2022-09-15T22:47:11.209Z,962.4
2022-09-15T22:51:53.415Z,962.4
2022-09-15T22:56:35.727Z,962.4
2022-09-15T23:01:18.066Z,962.3
2022-09-15T23:06:00.256Z,962.2
2022-09-15T23:10:42.568Z,962.2
2022-09-15T23:15:24.874Z,962.2
2022-09-15T23:20:07.087Z,962.2
2022-09-15T23:24:49.399Z,962.1
2022-09-15T23:29:30.706Z,962.1
2022-09-15T23:34:13.032Z,962.1
2022-09-15T23:38:55.237Z,962.1
2022-09-15T23:43:37.541Z,962
2022-09-15T23:48:19.854Z,962.1
2022-09-15T23:53:02.068Z,962.1
2022-09-15T23:57:44.379Z,962.1
